< < Back
Terminal Aerodrome Forecast


Current Version              Previous Versions:   1  2  3  4  5  6  7  8  9  

Terminal Aerodrome Forecast

618
FTUS42 KFFC 250543
TAFATL
TAF
KATL 250543Z 2506/2612 22003KT P6SM FEW120 FEW250
     FM251500 26004KT P6SM SCT035
     FM251800 24006KT P6SM VCSH SCT050 PROB30 2519/2523 6SM -TSRA
      BKN040CB
     FM260200 24003KT P6SM SCT100=

Latest METAR

419
SAUS70 KWBC 251500 RRD
MTRATL
METAR KATL 251452Z VRB04KT 10SM FEW120 32/22 A3010 RMK AO2 SLP179
T03220217 50001


USA.gov is the U.S. government's official web portal to all federal, state and local government web resources and services.